Time;durP1;ratioP1;P1;durP2;ratioP2;P2;SDS_P1;SDS_P2;PMS_P1;PMS_P2;Temp;Humidity;BMP_temperature;BMP_pressure;BME280_temperature;BME280_humidity;BME280_pressure;Samples;Min_cycle;Max_cycle;Signal;HPM_P1;HPM_P2
2021/11/27 00:00:06;;;;;;;42.48;19.25;;;;;;;0.63;88.52;94206.45;1759358;82;21047;-82
2021/11/27 00:02:34;;;;;;;17.30;11.88;;;;;;;0.58;88.53;94198.83;1759668;81;20993;-81
2021/11/27 00:04:59;;;;;;;57.55;29.75;;;;;;;0.59;88.57;94200.41;1774404;81;21049;-82
2021/11/27 00:07:25;;;;;;;53.25;28.07;;;;;;;0.61;88.56;94204.07;1774812;81;20986;-82
2021/11/27 00:09:51;;;;;;;22.93;13.75;;;;;;;0.64;88.62;94211.87;1774522;81;21077;-82
2021/11/27 00:12:17;;;;;;;23.10;13.28;;;;;;;0.66;88.62;94214.59;1774300;81;21053;-81
2021/11/27 00:14:43;;;;;;;13.10;10.75;;;;;;;0.65;88.65;94214.73;1774160;81;21060;-82
2021/11/27 00:17:09;;;;;;;30.27;15.45;;;;;;;0.62;88.58;94220.20;1774186;81;21085;-82
2021/11/27 00:19:34;;;;;;;26.68;17.95;;;;;;;0.60;88.84;94222.45;1773495;81;20951;-82
2021/11/27 00:22:00;;;;;;;35.38;19.12;;;;;;;0.57;88.54;94225.84;1773824;81;21349;-82
2021/11/27 00:24:26;;;;;;;42.48;18.62;;;;;;;0.59;88.69;94227.25;1773977;81;21010;-82
2021/11/27 00:26:52;;;;;;;51.77;23.40;;;;;;;0.63;88.76;94231.52;1771958;81;21370;-82
2021/11/27 00:29:18;;;;;;;42.90;18.92;;;;;;;0.64;88.83;94233.11;1770169;81;21010;-82
2021/11/27 00:31:45;;;;;;;27.30;16.87;;;;;;;0.62;88.79;94241.44;1770604;81;20984;-81
2021/11/27 00:34:10;;;;;;;33.75;20.80;;;;;;;0.56;88.94;94242.93;1773905;81;20966;-82
2021/11/27 00:36:36;;;;;;;38.83;18.62;;;;;;;0.53;88.90;94244.56;1773778;81;21342;-82
2021/11/27 00:39:04;;;;;;;25.40;14.75;;;;;;;0.53;89.08;94242.00;1769150;81;20932;-82
2021/11/27 00:41:30;;;;;;;20.57;12.43;;;;;;;0.53;88.93;94248.39;1766500;80;21487;-82
2021/11/27 00:43:56;;;;;;;46.95;22.35;;;;;;;0.52;89.02;94251.91;1721175;82;21021;-82
2021/11/27 00:46:22;;;;;;;37.05;17.57;;;;;;;0.51;89.23;94248.26;1738239;81;20982;-82
2021/11/27 00:48:48;;;;;;;24.30;13.55;;;;;;;0.46;89.13;94252.58;1771214;81;20959;-81
2021/11/27 00:51:18;;;;;;;18.55;12.60;;;;;;;0.47;89.30;94254.17;1771162;81;21023;-82
2021/11/27 00:53:44;;;;;;;30.65;18.17;;;;;;;0.50;89.20;94258.17;1776551;81;21015;-82
2021/11/27 00:56:10;;;;;;;32.17;15.53;;;;;;;0.51;89.10;94257.20;1776641;81;20987;-81
2021/11/27 00:58:36;;;;;;;19.62;12.90;;;;;;;0.54;89.11;94263.23;1771252;81;21051;-82
2021/11/27 01:01:05;;;;;;;50.98;21.10;;;;;;;0.54;89.07;94258.12;1770442;81;20990;-81
2021/11/27 01:03:32;;;;;;;92.33;44.00;;;;;;;0.55;89.24;94268.66;1762654;81;20969;-82
2021/11/27 01:06:00;;;;;;;43.23;25.00;;;;;;;0.52;89.12;94263.41;1771640;81;21076;-82
2021/11/27 01:08:26;;;;;;;20.05;12.68;;;;;;;0.55;89.28;94272.01;1741500;81;20971;-82
2021/11/27 01:10:58;;;;;;;16.02;12.60;;;;;;;0.60;89.31;94267.17;1715565;84;21015;-82
2021/11/27 01:13:24;;;;;;;18.05;13.58;;;;;;;0.64;89.13;94265.54;1715660;84;20986;-82
2021/11/27 01:15:50;;;;;;;22.98;16.67;;;;;;;0.64;88.98;94267.61;1699262;84;21055;-82
2021/11/27 01:18:16;;;;;;;40.75;23.52;;;;;;;0.60;88.91;94265.89;1715948;84;21018;-82
2021/11/27 01:20:47;;;;;;;32.78;16.73;;;;;;;0.59;89.11;94263.02;1770806;81;21010;-82
2021/11/27 01:23:13;;;;;;;20.55;13.45;;;;;;;0.58;89.10;94258.88;1758180;81;20999;-82
2021/11/27 01:25:40;;;;;;;19.90;13.43;;;;;;;0.59;89.07;94257.91;1760038;81;21315;-82
2021/11/27 01:28:07;;;;;;;43.10;25.00;;;;;;;0.64;89.09;94256.11;1760858;81;20972;-81
2021/11/27 01:30:33;;;;;;;56.00;23.65;;;;;;;0.68;88.96;94254.03;1759154;82;21286;-82
2021/11/27 01:32:59;;;;;;;24.67;16.80;;;;;;;0.69;89.00;94249.22;1756830;81;20963;-81
2021/11/27 01:35:25;;;;;;;45.92;22.73;;;;;;;0.70;89.12;94246.98;1756549;82;20987;-82
2021/11/27 01:37:51;;;;;;;45.25;21.15;;;;;;;0.73;89.18;94235.12;1756677;82;21050;-82
2021/11/27 01:40:21;;;;;;;36.50;19.50;;;;;;;0.73;88.85;94234.64;1758050;81;21018;-82
2021/11/27 01:42:47;;;;;;;30.65;20.05;;;;;;;0.77;88.89;94235.08;1758049;81;21434;-82
2021/11/27 01:45:13;;;;;;;24.45;17.73;;;;;;;0.79;88.71;94232.66;1740468;82;21112;-82
2021/11/27 01:47:39;;;;;;;29.77;20.08;;;;;;;0.79;88.82;94235.21;1743474;81;20958;-82
2021/11/27 01:50:06;;;;;;;31.15;17.67;;;;;;;0.79;88.89;94234.41;1743805;82;21026;-82
2021/11/27 01:52:32;;;;;;;26.95;17.87;;;;;;;0.75;88.75;94237.02;1766638;81;20995;-82
2021/11/27 01:54:57;;;;;;;36.75;19.07;;;;;;;0.76;88.91;94232.22;1757219;82;21334;-82
2021/11/27 01:57:23;;;;;;;48.10;24.30;;;;;;;0.79;88.93;94226.27;1759253;80;21037;-82
2021/11/27 01:59:49;;;;;;;52.05;30.27;;;;;;;0.79;88.80;94224.98;1777525;81;20976;-82
2021/11/27 02:02:15;;;;;;;105.63;52.48;;;;;;;0.84;88.77;94227.04;1761407;81;20999;-82
2021/11/27 02:04:41;;;;;;;66.60;27.25;;;;;;;0.88;88.76;94232.11;1765195;81;20999;-82
2021/11/27 02:07:07;;;;;;;71.10;27.98;;;;;;;0.86;88.68;94237.88;1770873;81;20937;-82
2021/11/27 02:09:35;;;;;;;64.10;29.80;;;;;;;0.81;88.50;94238.41;1777421;81;20941;-82
2021/11/27 02:12:05;;;;;;;52.40;26.97;;;;;;;0.76;88.52;94238.61;1768909;81;20963;-82
2021/11/27 02:14:31;;;;;;;31.23;19.15;;;;;;;0.77;88.68;94249.14;1764927;81;21043;-81
2021/11/27 02:16:57;;;;;;;26.68;18.15;;;;;;;0.81;88.77;94254.20;1769654;81;21011;-82
2021/11/27 02:19:23;;;;;;;26.07;17.82;;;;;;;0.85;88.79;94263.94;1771502;81;21003;-82
2021/11/27 02:21:49;;;;;;;24.90;16.40;;;;;;;0.86;88.60;94264.73;1756473;82;20991;-82
2021/11/27 02:24:17;;;;;;;30.60;16.73;;;;;;;0.83;88.57;94265.08;1787254;80;20982;-82
2021/11/27 02:26:43;;;;;;;21.17;14.38;;;;;;;0.79;88.64;94262.05;1755278;82;21217;-82
2021/11/27 02:29:19;;;;;;;54.18;35.90;;;;;;;0.77;88.62;94269.11;1755273;81;20984;-82
2021/11/27 02:31:45;;;;;;;52.67;22.65;;;;;;;0.74;88.57;94278.41;1751916;81;20975;-81
2021/11/27 02:34:11;;;;;;;16.82;12.47;;;;;;;0.78;88.69;94287.80;1742742;81;21014;-82
2021/11/27 02:36:39;;;;;;;19.05;14.28;;;;;;;0.80;88.72;94283.30;1736431;83;20971;-82
2021/11/27 02:39:08;;;;;;;21.50;13.98;;;;;;;0.80;88.72;94285.37;1765439;81;20971;-81
2021/11/27 02:41:33;;;;;;;20.08;14.15;;;;;;;0.80;88.91;94287.92;1738420;83;21007;-82
2021/11/27 02:43:59;;;;;;;21.52;14.33;;;;;;;0.80;88.94;94280.74;1765474;81;20966;-82
2021/11/27 02:46:25;;;;;;;41.05;21.75;;;;;;;0.79;88.94;94282.50;1781787;78;21030;-81
2021/11/27 02:48:51;;;;;;;20.80;15.20;;;;;;;0.84;89.00;94285.84;1740850;81;21034;-82
2021/11/27 02:51:17;;;;;;;32.33;17.62;;;;;;;0.86;88.76;94285.97;1777357;81;21015;-82
2021/11/27 02:53:43;;;;;;;31.27;16.73;;;;;;;0.87;88.66;94286.77;1777499;81;21358;-82
2021/11/27 02:56:08;;;;;;;20.48;14.53;;;;;;;0.85;88.57;94292.06;1777620;81;21019;-82
2021/11/27 02:58:34;;;;;;;20.77;14.15;;;;;;;0.84;88.62;94292.23;1777412;81;21058;-82
2021/11/27 03:01:01;;;;;;;50.25;23.98;;;;;;;0.85;88.86;94293.34;1772805;81;21453;-82
2021/11/27 03:03:27;;;;;;;38.40;20.43;;;;;;;0.86;88.88;94291.58;1771245;81;21034;-81
2021/11/27 03:05:53;;;;;;;48.38;21.65;;;;;;;0.84;88.65;94292.23;1771476;81;21306;-82
2021/11/27 03:08:19;;;;;;;32.25;18.30;;;;;;;0.84;88.60;94299.91;1777237;81;20949;-82
2021/11/27 03:10:45;;;;;;;52.67;31.90;;;;;;;0.88;88.79;94296.02;1777811;81;20994;-81
2021/11/27 03:13:12;;;;;;;49.33;25.32;;;;;;;0.90;88.67;94301.76;1777795;81;20998;-82
2021/11/27 03:15:41;;;;;;;66.70;34.05;;;;;;;0.87;88.64;94293.95;1765906;81;21003;-81
2021/11/27 03:18:06;;;;;;;45.00;29.42;;;;;;;0.87;88.70;94302.11;1778614;80;20987;-82
2021/11/27 03:20:32;;;;;;;68.17;28.32;;;;;;;0.87;88.84;94308.50;1777411;81;21025;-82
2021/11/27 03:22:58;;;;;;;41.90;21.57;;;;;;;0.88;88.70;94301.14;1749322;81;20946;-82
2021/11/27 03:25:23;;;;;;;24.43;15.93;;;;;;;0.93;88.87;94308.28;1777666;81;21010;-82
2021/11/27 03:27:49;;;;;;;25.68;16.23;;;;;;;1.00;88.94;94307.44;1747878;81;20974;-82
2021/11/27 03:30:17;;;;;;;35.13;20.57;;;;;;;1.06;88.92;94309.77;1772957;81;21034;-82
2021/11/27 03:32:43;;;;;;;42.43;24.43;;;;;;;1.06;88.86;94309.28;1829269;78;21333;-81
2021/11/27 03:35:09;;;;;;;47.88;29.82;;;;;;;1.06;88.80;94311.05;1766631;80;21007;-82
2021/11/27 03:37:35;;;;;;;39.63;21.82;;;;;;;1.07;88.82;94317.75;1795526;80;20977;-82
2021/11/27 03:40:01;;;;;;;41.13;20.82;;;;;;;1.05;88.44;94311.53;1770701;80;21022;-82
2021/11/27 03:42:27;;;;;;;29.87;17.62;;;;;;;1.01;88.20;94311.58;1770976;80;21030;-82
2021/11/27 03:44:53;;;;;;;66.15;41.75;;;;;;;1.04;88.42;94312.50;1763359;81;21078;-82
2021/11/27 03:47:19;;;;;;;66.75;27.70;;;;;;;1.04;88.37;94312.99;1759512;82;20944;-82
2021/11/27 03:49:44;;;;;;;29.10;15.75;;;;;;;1.00;88.27;94313.83;1762901;81;21036;-82
2021/11/27 03:52:10;;;;;;;20.05;12.13;;;;;;;0.92;88.26;94308.77;1769342;81;20915;-82
2021/11/27 03:54:37;;;;;;;17.40;10.38;;;;;;;0.88;88.31;94315.20;1742444;81;21034;-82
2021/11/27 03:57:03;;;;;;;15.43;10.45;;;;;;;0.84;88.23;94318.59;1767913;81;20990;-82
2021/11/27 03:59:28;;;;;;;16.77;11.93;;;;;;;0.82;88.32;94324.85;1744090;82;21042;-81
2021/11/27 04:01:54;;;;;;;12.05;9.95;;;;;;;0.85;88.38;94318.11;1744264;82;21089;-82
2021/11/27 04:04:20;;;;;;;17.92;10.28;;;;;;;0.87;88.48;94315.69;1746937;81;20951;-82
2021/11/27 04:06:46;;;;;;;9.83;8.55;;;;;;;0.87;88.42;94316.97;1775165;81;22157;-82
2021/11/27 04:09:14;;;;;;;9.38;8.38;;;;;;;0.84;88.56;94315.25;1732594;83;21071;-82
2021/11/27 04:11:40;;;;;;;10.85;8.73;;;;;;;0.81;88.68;94315.11;1754326;81;21020;-82
2021/11/27 04:14:06;;;;;;;8.65;7.47;;;;;;;0.82;88.81;94309.52;1766940;81;20957;-81
2021/11/27 04:16:32;;;;;;;9.18;7.72;;;;;;;0.86;88.72;94306.43;1766596;81;21038;-82
2021/11/27 04:18:58;;;;;;;9.55;7.55;;;;;;;0.89;88.60;94300.17;1754454;80;21336;-82
2021/11/27 04:21:24;;;;;;;12.93;8.83;;;;;;;0.95;88.80;94306.34;1746383;81;20995;-81
2021/11/27 04:23:50;;;;;;;11.45;8.53;;;;;;;0.99;88.87;94316.08;1736465;83;20967;-81
2021/11/27 04:26:17;;;;;;;12.78;10.05;;;;;;;1.05;88.99;94319.20;1736749;81;21015;-81
2021/11/27 04:28:42;;;;;;;17.00;13.18;;;;;;;1.10;89.06;94322.52;1829419;78;20998;-82
2021/11/27 04:31:09;;;;;;;10.45;7.47;;;;;;;1.14;89.11;94314.34;1759284;82;20998;-81
2021/11/27 04:33:35;;;;;;;10.53;8.03;;;;;;;1.18;89.08;94320.69;1766428;81;20976;-81
2021/11/27 04:36:01;;;;;;;15.35;10.23;;;;;;;1.24;88.90;94324.80;1766152;81;20944;-81
2021/11/27 04:38:26;;;;;;;21.30;14.98;;;;;;;1.19;88.47;94328.67;1766205;81;20937;-81
2021/11/27 04:40:53;;;;;;;13.03;9.30;;;;;;;1.19;88.43;94335.55;1765315;81;21034;-81
2021/11/27 04:43:19;;;;;;;11.12;8.38;;;;;;;1.16;88.38;94327.75;1752261;81;21008;-81
2021/11/27 04:45:45;;;;;;;9.30;6.83;;;;;;;1.13;88.38;94327.28;1751744;81;21027;-81
2021/11/27 04:48:11;;;;;;;11.22;8.25;;;;;;;1.11;88.42;94322.83;1739250;81;21341;-81
2021/11/27 04:50:37;;;;;;;7.80;6.67;;;;;;;1.08;88.10;94329.57;1766725;81;20998;-81
2021/11/27 04:53:03;;;;;;;9.55;7.80;;;;;;;1.07;88.28;94327.50;1766756;81;20982;-81
2021/11/27 04:55:31;;;;;;;10.88;8.35;;;;;;;1.06;88.06;94329.75;1766749;81;20989;-81
2021/11/27 04:57:57;;;;;;;11.50;7.58;;;;;;;1.05;88.14;94329.92;1765846;81;20991;-82
2021/11/27 05:00:27;;;;;;;12.70;9.18;;;;;;;1.06;88.52;94326.39;1766452;81;21031;-81
2021/11/27 05:02:53;;;;;;;9.78;7.65;;;;;;;1.04;88.35;94325.30;1766719;81;20958;-81
2021/11/27 05:05:20;;;;;;;10.43;8.45;;;;;;;1.05;88.50;94324.81;1766546;81;20931;-81
2021/11/27 05:07:45;;;;;;;9.93;8.13;;;;;;;1.05;88.18;94319.69;1745409;81;20948;-81
2021/11/27 05:10:12;;;;;;;10.58;8.28;;;;;;;1.02;88.05;94318.77;1736611;83;21050;-81
2021/11/27 05:12:38;;;;;;;11.55;8.85;;;;;;;1.06;88.28;94314.41;1709799;83;20975;-81
2021/11/27 05:15:04;;;;;;;9.98;7.97;;;;;;;1.09;88.34;94307.66;1751687;81;21022;-81
2021/11/27 05:17:30;;;;;;;10.58;7.53;;;;;;;1.08;88.36;94312.46;1755177;81;21067;-81
2021/11/27 05:19:56;;;;;;;11.83;8.30;;;;;;;1.07;88.10;94325.42;1756268;82;21309;-81
2021/11/27 05:22:22;;;;;;;11.15;8.08;;;;;;;1.05;88.38;94321.77;1752418;81;20960;-81
2021/11/27 05:24:48;;;;;;;9.18;7.62;;;;;;;1.05;88.42;94332.00;1751744;82;21027;-81
2021/11/27 05:27:15;;;;;;;10.32;7.40;;;;;;;1.06;88.45;94338.70;1752119;82;20960;-81
2021/11/27 05:29:41;;;;;;;9.83;7.83;;;;;;;1.08;88.45;94341.88;1760603;81;20975;-81
2021/11/27 05:32:19;;;;;;;11.90;8.63;;;;;;;1.12;88.52;94339.76;1829524;78;20959;-81
2021/11/27 05:34:36;;;;;;;11.28;8.50;;;;;;;1.11;88.46;94335.12;1828441;78;20959;-81
2021/11/27 05:37:04;;;;;;;10.10;7.70;;;;;;;1.09;88.49;94338.34;1829666;78;21032;-81
2021/11/27 05:39:30;;;;;;;11.12;8.48;;;;;;;1.07;88.53;94341.56;1829569;78;21004;-81
2021/11/27 05:41:56;;;;;;;11.10;8.33;;;;;;;1.05;88.58;94344.78;1829887;78;20987;-81
2021/11/27 05:44:22;;;;;;;10.55;8.03;;;;;;;1.07;88.67;94350.52;1829690;78;21009;-81
2021/11/27 05:46:48;;;;;;;9.00;6.25;;;;;;;1.08;88.64;94357.22;1828375;78;20995;-81
2021/11/27 05:49:14;;;;;;;9.18;7.70;;;;;;;1.09;88.30;94352.90;1829570;78;21397;-81
2021/11/27 05:51:40;;;;;;;10.55;7.58;;;;;;;1.10;88.58;94346.81;1829607;78;21181;-81
2021/11/27 05:54:06;;;;;;;8.50;7.30;;;;;;;1.12;88.62;94351.27;1829715;78;20983;-81
2021/11/27 05:56:31;;;;;;;11.12;7.80;;;;;;;1.12;88.48;94350.78;1829838;78;21033;-82
2021/11/27 05:58:57;;;;;;;8.38;7.03;;;;;;;1.12;88.65;94349.50;1802353;78;20984;-81
2021/11/27 06:01:25;;;;;;;9.75;6.72;;;;;;;1.12;88.74;94353.83;1810757;78;20997;-81
2021/11/27 06:03:51;;;;;;;8.55;6.42;;;;;;;1.10;88.49;94355.77;1797636;80;21016;-81
2021/11/27 06:06:17;;;;;;;10.28;6.67;;;;;;;1.09;88.69;94352.41;1817533;78;20992;-81
2021/11/27 06:08:42;;;;;;;9.33;6.75;;;;;;;1.11;88.69;94364.54;1824884;78;21331;-82
2021/11/27 06:11:08;;;;;;;7.53;6.33;;;;;;;1.15;88.78;94365.81;1797359;80;21430;-81
2021/11/27 06:13:34;;;;;;;8.58;7.12;;;;;;;1.15;88.74;94361.18;1797307;80;20977;-82
2021/11/27 06:16:06;;;;;;;7.55;6.25;;;;;;;1.17;88.82;94365.15;1796925;79;21115;-81
2021/11/27 06:18:28;;;;;;;8.13;6.75;;;;;;;1.16;88.71;94369.95;1796316;80;20961;-81
2021/11/27 06:20:53;;;;;;;6.78;5.65;;;;;;;1.17;88.78;94375.38;1797204;80;21015;-81
2021/11/27 06:23:19;;;;;;;8.03;6.95;;;;;;;1.20;88.69;94373.75;1797509;78;20965;-81
2021/11/27 06:25:45;;;;;;;7.35;6.08;;;;;;;1.29;88.75;94381.34;1797529;80;21049;-81
2021/11/27 06:28:11;;;;;;;7.37;6.55;;;;;;;1.34;88.61;94391.39;1782420;80;21003;-81
2021/11/27 06:30:40;;;;;;;8.50;6.90;;;;;;;1.37;88.33;94392.31;1756488;81;21033;-81
2021/11/27 06:33:04;;;;;;;10.40;8.10;;;;;;;1.41;88.14;94387.15;1715077;83;21003;-81
2021/11/27 06:35:30;;;;;;;8.25;7.35;;;;;;;1.39;88.21;94383.18;1714735;83;21017;-81
2021/11/27 06:37:56;;;;;;;9.33;7.10;;;;;;;1.36;88.09;94388.17;1747631;81;20995;-81
2021/11/27 06:40:21;;;;;;;9.23;7.05;;;;;;;1.31;87.97;94387.11;1760845;81;21067;-81
2021/11/27 06:42:47;;;;;;;8.20;6.90;;;;;;;1.33;88.10;94390.28;1775010;81;21067;-81
2021/11/27 06:45:13;;;;;;;9.53;7.75;;;;;;;1.37;88.18;94398.71;1829876;78;20944;-81
2021/11/27 06:47:39;;;;;;;9.48;7.70;;;;;;;1.41;87.88;94399.16;1764492;81;21007;-81
2021/11/27 06:50:06;;;;;;;8.75;7.83;;;;;;;1.44;87.98;94402.16;1751037;80;21009;-81
2021/11/27 06:52:31;;;;;;;9.58;7.47;;;;;;;1.41;87.38;94404.27;1736294;83;20939;-81
2021/11/27 06:54:57;;;;;;;10.48;7.37;;;;;;;1.39;87.75;94398.05;1756390;81;20995;-81
2021/11/27 06:57:23;;;;;;;10.85;7.75;;;;;;;1.31;87.27;94398.13;1757285;81;21007;-81
2021/11/27 06:59:49;;;;;;;8.43;7.55;;;;;;;1.27;87.40;94401.98;1795893;80;20992;-81
2021/11/27 07:02:15;;;;;;;9.13;7.90;;;;;;;1.29;87.54;94394.13;1799309;78;20985;-81
2021/11/27 07:04:41;;;;;;;10.38;7.85;;;;;;;1.30;87.20;94404.67;1799313;78;20985;-81
2021/11/27 07:07:06;;;;;;;8.80;7.67;;;;;;;1.31;87.17;94409.65;1769830;80;21039;-81
2021/11/27 07:09:34;;;;;;;8.78;7.28;;;;;;;1.28;87.18;94411.73;1756462;81;20996;-81
2021/11/27 07:12:00;;;;;;;9.98;7.58;;;;;;;1.27;87.24;94405.03;1762682;81;21306;-81
2021/11/27 07:14:26;;;;;;;9.43;7.92;;;;;;;1.26;87.16;94411.11;1798752;80;20948;-81
2021/11/27 07:16:52;;;;;;;9.03;7.42;;;;;;;1.18;87.14;94411.50;1800687;78;21027;-82
2021/11/27 07:19:18;;;;;;;9.80;6.72;;;;;;;1.16;87.08;94405.77;1798480;78;21362;-81
2021/11/27 07:21:43;;;;;;;9.58;7.62;;;;;;;1.19;87.23;94410.53;1809143;78;20944;-81
2021/11/27 07:24:09;;;;;;;8.98;6.70;;;;;;;1.22;86.90;94417.55;1799795;80;21058;-81
2021/11/27 07:26:35;;;;;;;8.83;7.12;;;;;;;1.18;86.90;94414.55;1799577;80;21409;-81
2021/11/27 07:29:01;;;;;;;9.63;7.22;;;;;;;1.20;87.27;94410.84;1763393;81;21547;-81
2021/11/27 07:31:27;;;;;;;12.20;7.47;;;;;;;1.21;87.06;94411.64;1766651;81;20962;-81
2021/11/27 07:33:53;;;;;;;12.43;9.43;;;;;;;1.22;87.27;94418.83;1766325;81;21084;-81
2021/11/27 07:36:18;;;;;;;7.80;6.60;;;;;;;1.19;86.77;94419.97;1766558;81;20944;-81
2021/11/27 07:38:44;;;;;;;11.12;9.95;;;;;;;1.19;86.77;94419.97;1794454;80;20960;-81
2021/11/27 07:41:11;;;;;;;10.15;8.55;;;;;;;1.16;86.63;94424.16;1797874;80;21011;-81
2021/11/27 07:43:37;;;;;;;9.88;8.38;;;;;;;1.22;87.05;94432.41;1796710;80;20972;-81
2021/11/27 07:46:03;;;;;;;8.23;6.87;;;;;;;1.28;87.14;94437.31;1796836;80;21436;-81
2021/11/27 07:48:31;;;;;;;9.78;7.87;;;;;;;1.30;87.03;94443.05;1793810;79;21007;-81
2021/11/27 07:50:59;;;;;;;7.60;6.80;;;;;;;1.34;87.09;94446.88;1751503;82;21013;-81
2021/11/27 07:53:25;;;;;;;8.35;7.28;;;;;;;1.37;86.92;94449.09;1738845;81;20975;-82
2021/11/27 07:55:51;;;;;;;10.20;8.25;;;;;;;1.38;86.71;94452.76;1813363;78;21058;-81
2021/11/27 07:58:17;;;;;;;10.70;9.05;;;;;;;1.43;86.91;94454.31;1789096;78;21029;-81
2021/11/27 08:00:42;;;;;;;8.73;7.83;;;;;;;1.47;86.66;94458.63;1796798;80;20937;-81
2021/11/27 08:03:08;;;;;;;8.73;7.80;;;;;;;1.50;86.76;94462.91;1796850;78;21384;-81
2021/11/27 08:05:34;;;;;;;8.43;6.83;;;;;;;1.48;86.71;94454.61;1797128;78;20942;-82
2021/11/27 08:08:00;;;;;;;10.35;8.25;;;;;;;1.49;86.67;94465.64;1790870;78;20993;-82
2021/11/27 08:10:26;;;;;;;9.88;8.15;;;;;;;1.55;86.84;94477.73;1745737;81;21110;-81
2021/11/27 08:12:52;;;;;;;8.55;7.65;;;;;;;1.64;86.72;94481.03;1787913;78;21016;-82
2021/11/27 08:15:17;;;;;;;10.95;8.50;;;;;;;1.68;86.40;94472.03;1793040;80;20940;-81
2021/11/27 08:17:44;;;;;;;11.63;8.85;;;;;;;1.70;86.23;94477.29;1761840;81;21376;-81
2021/11/27 08:20:10;;;;;;;9.90;8.70;;;;;;;1.69;86.16;94471.86;1778975;78;20948;-80
2021/11/27 08:22:38;;;;;;;8.85;7.95;;;;;;;1.71;86.32;94464.80;1738964;81;20974;-81
2021/11/27 08:25:05;;;;;;;10.45;8.80;;;;;;;1.74;86.27;94470.05;1738301;83;20999;-80
2021/11/27 08:27:33;;;;;;;10.38;8.43;;;;;;;1.74;86.19;94473.41;1738149;83;21122;-81
2021/11/27 08:29:59;;;;;;;8.63;7.12;;;;;;;1.77;86.26;94476.89;1737634;83;21007;-80
2021/11/27 08:32:25;;;;;;;8.90;7.35;;;;;;;1.82;85.79;94478.95;1738023;83;21083;-81
2021/11/27 08:34:51;;;;;;;9.00;7.62;;;;;;;1.83;85.67;94495.11;1750702;81;21422;-81
2021/11/27 08:37:17;;;;;;;8.10;7.28;;;;;;;1.88;85.86;94495.38;1759037;82;21040;-80
2021/11/27 08:39:43;;;;;;;8.10;6.58;;;;;;;1.90;85.48;94509.59;1765432;81;21269;-81
2021/11/27 08:42:09;;;;;;;8.68;7.20;;;;;;;1.85;85.24;94509.81;1828878;78;21053;-80
2021/11/27 08:44:35;;;;;;;7.55;6.67;;;;;;;1.84;85.62;94517.19;1829261;78;21344;-80
2021/11/27 08:47:01;;;;;;;8.03;6.80;;;;;;;1.91;85.91;94512.95;1828806;78;20971;-81
2021/11/27 08:49:26;;;;;;;7.78;5.95;;;;;;;2.00;86.18;94515.76;1801431;78;21005;-80
2021/11/27 08:51:52;;;;;;;7.22;5.72;;;;;;;2.01;85.00;94508.38;1751175;82;21366;-80
2021/11/27 08:54:18;;;;;;;9.38;6.35;;;;;;;1.99;84.90;94504.72;1772820;81;21047;-80
2021/11/27 08:56:44;;;;;;;7.30;6.28;;;;;;;1.96;84.47;94501.72;1770440;81;20955;-80
2021/11/27 08:59:10;;;;;;;7.00;5.97;;;;;;;1.93;84.44;94502.05;1770279;81;20932;-80
2021/11/27 09:01:36;;;;;;;6.08;5.30;;;;;;;1.90;84.60;94483.19;1770182;81;21027;-81
2021/11/27 09:04:03;;;;;;;7.72;5.37;;;;;;;1.92;84.82;94494.05;1770494;81;21042;-80
2021/11/27 09:06:29;;;;;;;11.60;7.80;;;;;;;1.94;85.11;94508.75;1770038;81;21015;-80
2021/11/27 09:08:54;;;;;;;7.42;5.70;;;;;;;1.92;84.58;94523.50;1770450;81;21031;-80
2021/11/27 09:11:23;;;;;;;7.30;6.12;;;;;;;1.89;84.05;94526.42;1770184;81;21031;-80
2021/11/27 09:13:49;;;;;;;7.58;6.75;;;;;;;1.86;83.60;94511.41;1770279;81;21039;-81
2021/11/27 09:16:15;;;;;;;9.40;6.42;;;;;;;1.84;83.63;94503.90;1770107;81;21412;-80
2021/11/27 09:18:41;;;;;;;7.65;6.03;;;;;;;1.80;83.91;94498.81;1744219;81;20991;-80
2021/11/27 09:21:07;;;;;;;7.95;6.03;;;;;;;1.80;83.98;94501.38;1769750;81;20972;-80
2021/11/27 09:23:32;;;;;;;6.45;5.17;;;;;;;1.82;84.15;94500.72;1770225;81;21346;-80
2021/11/27 09:25:58;;;;;;;7.67;6.12;;;;;;;1.83;84.28;94493.83;1770059;81;20956;-80
2021/11/27 09:28:24;;;;;;;8.33;6.15;;;;;;;1.83;84.09;94498.47;1770197;81;21334;-80
2021/11/27 09:30:50;;;;;;;5.80;5.05;;;;;;;1.88;84.48;94504.34;1770628;81;21397;-80
2021/11/27 09:33:16;;;;;;;7.37;5.75;;;;;;;1.90;83.98;94510.08;1770067;81;21019;-80
2021/11/27 09:35:52;;;;;;;7.20;5.75;;;;;;;1.84;83.30;94495.42;1770252;81;21039;-80
2021/11/27 09:38:09;;;;;;;7.00;5.03;;;;;;;1.86;83.34;94512.20;1753510;82;20997;-80
2021/11/27 09:40:38;;;;;;;6.25;4.55;;;;;;;1.86;82.74;94521.16;1760884;81;21051;-80
2021/11/27 09:43:05;;;;;;;7.50;6.25;;;;;;;1.90;83.02;94522.40;1730497;83;21414;-81
2021/11/27 09:45:31;;;;;;;7.65;6.45;;;;;;;1.89;82.76;94522.09;1741794;82;21462;-81
2021/11/27 09:47:57;;;;;;;6.50;4.95;;;;;;;1.92;83.29;94523.02;1730402;83;21118;-80
2021/11/27 09:50:23;;;;;;;5.58;4.55;;;;;;;1.89;82.76;94519.53;1741649;82;20988;-80
2021/11/27 09:52:49;;;;;;;7.10;6.12;;;;;;;1.92;82.46;94514.05;1730418;83;20959;-81
2021/11/27 09:55:18;;;;;;;8.05;6.12;;;;;;;1.96;82.89;94500.44;1741979;82;21335;-81
2021/11/27 09:57:49;;;;;;;6.22;5.00;;;;;;;2.03;82.85;94498.27;1730431;83;21110;-80
2021/11/27 10:00:17;;;;;;;7.10;6.10;;;;;;;2.11;82.77;94502.50;1741635;82;20996;-80
2021/11/27 10:02:43;;;;;;;7.55;5.28;;;;;;;2.14;82.45;94506.02;1730570;83;21034;-81
2021/11/27 10:05:12;;;;;;;7.85;5.55;;;;;;;2.18;81.87;94509.02;1741871;82;21016;-80
2021/11/27 10:07:41;;;;;;;7.45;5.58;;;;;;;2.19;81.96;94517.81;1730939;83;21341;-80
2021/11/27 10:10:09;;;;;;;7.00;5.40;;;;;;;2.22;82.21;94513.61;1741664;82;21017;-80
2021/11/27 10:12:35;;;;;;;8.03;5.53;;;;;;;2.23;80.80;94519.05;1730794;83;20982;-80
2021/11/27 10:15:01;;;;;;;7.60;5.95;;;;;;;2.19;81.71;94528.06;1721204;82;21051;-81
2021/11/27 10:17:31;;;;;;;7.15;5.15;;;;;;;2.19;82.49;94536.23;1730919;83;21046;-81
2021/11/27 10:19:59;;;;;;;7.65;5.65;;;;;;;2.11;81.94;94529.41;1742087;82;20977;-81
2021/11/27 10:22:42;;;;;;;8.15;5.35;;;;;;;2.00;81.75;94527.28;1730863;83;21003;-80
2021/11/27 10:25:32;;;;;;;7.78;6.20;;;;;;;1.92;81.66;94535.03;1742261;82;21032;-81
2021/11/27 10:28:16;;;;;;;8.23;5.30;;;;;;;1.87;82.09;94530.44;1730926;83;20920;-80
2021/11/27 10:31:02;;;;;;;6.70;5.08;;;;;;;1.91;81.86;94531.67;1742261;82;21044;-80
2021/11/27 10:33:27;;;;;;;7.40;5.42;;;;;;;1.94;81.84;94520.28;1730971;83;20983;-80
2021/11/27 10:36:06;;;;;;;7.08;5.55;;;;;;;1.92;81.79;94507.66;1742206;82;20985;-81
2021/11/27 10:38:48;;;;;;;6.78;5.42;;;;;;;1.90;81.60;94514.72;1730997;83;20987;-80
2021/11/27 10:41:16;;;;;;;8.35;5.50;;;;;;;1.92;81.62;94526.06;1748044;81;21069;-80
2021/11/27 10:44:04;;;;;;;8.20;5.20;;;;;;;1.94;82.83;94524.12;1768037;81;20978;-80
2021/11/27 10:46:36;;;;;;;6.28;5.20;;;;;;;2.00;82.79;94518.33;1796537;80;21050;-80
2021/11/27 10:49:04;;;;;;;5.27;3.90;;;;;;;2.05;82.62;94501.94;1773428;80;21038;-80
2021/11/27 10:51:31;;;;;;;7.80;5.35;;;;;;;2.10;82.04;94502.98;1757460;81;21377;-80
2021/11/27 10:54:04;;;;;;;6.47;5.17;;;;;;;2.10;81.51;94508.59;1726549;83;21462;-80
2021/11/27 10:56:40;;;;;;;5.78;4.67;;;;;;;2.11;82.29;94510.19;1746018;82;21120;-80
2021/11/27 10:59:07;;;;;;;6.15;4.58;;;;;;;2.08;81.60;94508.78;1744633;82;20958;-80
2021/11/27 11:02:05;;;;;;;6.72;5.03;;;;;;;2.08;80.57;94498.53;1746403;82;21028;-80
2021/11/27 11:04:34;;;;;;;6.92;5.40;;;;;;;2.07;81.32;94504.63;1719741;82;21081;-81
2021/11/27 11:07:22;;;;;;;6.62;4.70;;;;;;;2.17;82.60;94506.95;1746304;82;21025;-80
2021/11/27 11:10:15;;;;;;;6.80;5.10;;;;;;;2.15;81.09;94503.77;1746408;82;21022;-81
2021/11/27 11:13:00;;;;;;;8.68;5.62;;;;;;;2.15;80.54;94508.89;1746927;82;21030;-80
2021/11/27 11:15:33;;;;;;;6.47;5.10;;;;;;;2.15;81.19;94510.66;1747040;82;21009;-81
2021/11/27 11:18:20;;;;;;;6.95;4.85;;;;;;;2.19;81.36;94518.30;1746260;81;20994;-81
2021/11/27 11:20:53;;;;;;;8.48;5.72;;;;;;;2.22;81.12;94511.53;1720377;82;20950;-81
2021/11/27 11:23:35;;;;;;;6.17;5.22;;;;;;;2.27;81.05;94504.11;1746375;82;20946;-81
2021/11/27 11:26:11;;;;;;;7.67;5.85;;;;;;;2.29;80.82;94513.72;1747000;82;21045;-80
2021/11/27 11:28:48;;;;;;;5.97;4.60;;;;;;;2.29;80.84;94515.80;1746925;82;21348;-81
2021/11/27 11:31:27;;;;;;;8.13;5.80;;;;;;;2.28;79.38;94512.92;1747026;82;20964;-80
2021/11/27 11:33:56;;;;;;;6.28;4.78;;;;;;;2.26;79.99;94508.44;1746973;82;21017;-80